Time;durP1;ratioP1;P1;durP2;ratioP2;P2;SDS_P1;SDS_P2;PMS_P1;PMS_P2;Temp;Humidity;BMP_temperature;BMP_pressure;BME280_temperature;BME280_humidity;BME280_pressure;Samples;Min_cycle;Max_cycle;Signal;HPM_P1;HPM_P2
2021/01/18 00:01:28;;;;;;;118.95;104.97;;;;;;;-4.38;100.00;101825.34;5072718;28;20629;-72
2021/01/18 00:03:53;;;;;;;65.82;32.20;;;;;;;-4.34;100.00;101821.94;5072766;28;20180;-74
2021/01/18 00:06:20;;;;;;;121.53;108.60;;;;;;;-4.43;100.00;101820.97;5072526;28;20639;-74
2021/01/18 00:08:46;;;;;;;90.97;69.07;;;;;;;-4.40;100.00;101821.00;5067605;28;20211;-72
2021/01/18 00:11:13;;;;;;;90.05;76.30;;;;;;;-4.44;100.00;101824.41;5061969;28;20185;-73
2021/01/18 00:13:39;;;;;;;54.25;22.20;;;;;;;-4.43;100.00;101818.41;5071980;28;20184;-72
2021/01/18 00:16:05;;;;;;;90.57;77.20;;;;;;;-4.43;100.00;101824.41;5055126;28;20157;-72
2021/01/18 00:18:31;;;;;;;90.88;56.13;;;;;;;-4.46;100.00;101821.78;5067160;28;20168;-73
2021/01/18 00:20:58;;;;;;;80.57;44.63;;;;;;;-4.44;100.00;101825.25;5068942;28;20326;-73
2021/01/18 00:23:23;;;;;;;105.55;70.05;;;;;;;-4.49;100.00;101825.19;5069448;28;20230;-73
2021/01/18 00:25:49;;;;;;;53.93;31.50;;;;;;;-4.46;100.00;101824.34;5072146;28;20615;-73
2021/01/18 00:28:15;;;;;;;86.93;57.97;;;;;;;-4.45;100.00;101826.09;5056689;28;20167;-74
2021/01/18 00:30:40;;;;;;;96.10;56.30;;;;;;;-4.46;100.00;101826.91;5067568;28;20498;-74
2021/01/18 00:33:06;;;;;;;77.37;41.97;;;;;;;-4.43;100.00;101828.69;5072226;28;20235;-72
2021/01/18 00:35:34;;;;;;;65.27;33.57;;;;;;;-4.39;100.00;101833.84;5071036;28;20226;-71
2021/01/18 00:38:00;;;;;;;75.53;45.95;;;;;;;-4.38;100.00;101839.81;5072486;28;20172;-72
2021/01/18 00:40:26;;;;;;;62.70;36.83;;;;;;;-4.35;100.00;101845.88;5056656;28;20176;-73
2021/01/18 00:42:52;;;;;;;94.75;62.33;;;;;;;-4.32;100.00;101840.78;5051968;28;20158;-73
2021/01/18 00:45:19;;;;;;;65.73;40.03;;;;;;;-4.28;100.00;101837.41;5051638;28;20226;-71
2021/01/18 00:47:47;;;;;;;57.53;33.67;;;;;;;-4.24;100.00;101843.41;5065474;28;20426;-72
2021/01/18 00:50:14;;;;;;;90.15;63.33;;;;;;;-4.26;100.00;101845.13;5056685;28;20703;-73
2021/01/18 00:52:44;;;;;;;80.22;55.33;;;;;;;-4.17;100.00;101840.09;5066065;28;20168;-73
2021/01/18 00:55:14;;;;;;;101.63;85.95;;;;;;;-4.18;100.00;101846.94;5051826;28;20193;-70
2021/01/18 00:57:40;;;;;;;78.93;36.20;;;;;;;-4.15;100.00;101845.25;5051460;28;20173;-70
2021/01/18 01:00:11;;;;;;;90.32;57.63;;;;;;;-4.10;100.00;101851.28;5061911;28;20169;-72
2021/01/18 01:02:41;;;;;;;108.40;83.60;;;;;;;-4.13;100.00;101846.13;5060129;28;20191;-72
2021/01/18 01:05:08;;;;;;;57.92;33.03;;;;;;;-4.07;100.00;101841.06;5066254;28;20191;-73
2021/01/18 01:07:41;;;;;;;98.78;50.25;;;;;;;-4.00;100.00;101848.00;5056634;28;20244;-71
2021/01/18 01:10:09;;;;;;;87.97;54.05;;;;;;;-4.00;100.00;101842.88;5065912;28;20192;-72
2021/01/18 01:12:35;;;;;;;119.78;107.60;;;;;;;-3.95;100.00;101841.19;5069763;28;20156;-74
2021/01/18 01:15:00;;;;;;;92.10;80.50;;;;;;;-3.89;100.00;101838.69;5070570;28;20254;-72
2021/01/18 01:17:26;;;;;;;100.33;70.03;;;;;;;-3.88;100.00;101845.53;5071469;28;20391;-73
2021/01/18 01:19:52;;;;;;;61.83;30.63;;;;;;;-3.83;100.00;101845.59;5071446;28;20259;-72
2021/01/18 01:22:17;;;;;;;63.77;36.83;;;;;;;-3.84;100.00;101847.31;5060721;28;20407;-71
2021/01/18 01:24:43;;;;;;;84.47;53.50;;;;;;;-3.84;100.00;101843.88;5055690;28;20256;-73
2021/01/18 01:27:08;;;;;;;93.40;71.50;;;;;;;-3.82;100.00;101844.75;5057724;28;20585;-74
2021/01/18 01:29:34;;;;;;;89.67;49.10;;;;;;;-3.83;100.00;101841.31;5051438;28;20219;-70
2021/01/18 01:31:59;;;;;;;81.47;43.27;;;;;;;-3.81;100.00;101844.75;5068684;28;20172;-74
2021/01/18 01:34:25;;;;;;;73.30;35.80;;;;;;;-3.79;100.00;101848.19;5071378;28;20195;-74
2021/01/18 01:36:50;;;;;;;86.10;47.87;;;;;;;-3.80;100.00;101843.06;5071352;28;20192;-74
2021/01/18 01:39:16;;;;;;;87.57;48.50;;;;;;;-3.77;100.00;101856.78;5070967;28;20255;-74
2021/01/18 01:41:41;;;;;;;55.70;24.10;;;;;;;-3.74;100.00;101859.38;5070720;28;20171;-73
2021/01/18 01:44:07;;;;;;;87.20;45.97;;;;;;;-3.75;100.00;101851.66;5056571;28;20188;-74
2021/01/18 01:46:34;;;;;;;84.40;46.72;;;;;;;-3.75;100.00;101857.66;5062030;28;20169;-73
2021/01/18 01:48:59;;;;;;;77.82;45.50;;;;;;;-3.75;100.00;101862.78;5057189;28;20184;-72
2021/01/18 01:51:27;;;;;;;78.57;68.50;;;;;;;-3.74;100.00;101861.09;5077380;28;20183;-72
2021/01/18 01:53:54;;;;;;;82.13;28.73;;;;;;;-3.77;100.00;101856.78;5076944;28;20603;-72
2021/01/18 01:56:23;;;;;;;62.65;48.03;;;;;;;-3.75;100.00;101855.09;5076243;28;20167;-70
2021/01/18 01:58:53;;;;;;;90.53;40.08;;;;;;;-3.76;100.00;101857.66;5069484;28;20552;-74
2021/01/18 02:01:22;;;;;;;84.00;59.85;;;;;;;-3.81;100.00;101860.16;5066266;28;20180;-72
2021/01/18 02:03:52;;;;;;;117.53;90.82;;;;;;;-3.84;100.00;101860.13;5057736;28;20575;-73
2021/01/18 02:06:19;;;;;;;74.72;28.00;;;;;;;-3.85;100.00;101863.56;5069021;28;20559;-73
2021/01/18 02:08:45;;;;;;;92.78;56.45;;;;;;;-3.91;100.00;101873.75;5076179;28;20217;-70
2021/01/18 02:11:10;;;;;;;58.33;34.63;;;;;;;-3.94;100.00;101863.44;5058858;28;20188;-71
2021/01/18 02:14:04;;;;;;;71.60;19.70;;;;;;;-3.95;100.00;101870.28;5076411;28;20465;-71
2021/01/18 02:16:52;;;;;;;68.38;52.88;;;;;;;-3.99;100.00;101873.66;5067289;28;20661;-71
2021/01/18 02:19:26;;;;;;;63.67;38.47;;;;;;;-3.97;100.00;101877.09;5055585;28;20588;-72
2021/01/18 02:22:29;;;;;;;60.58;21.52;;;;;;;-3.97;100.00;101868.53;5076322;28;20152;-73
2021/01/18 02:25:07;;;;;;;69.82;34.65;;;;;;;-3.94;100.00;101873.69;5058310;28;20677;-73
2021/01/18 02:27:52;;;;;;;59.75;32.20;;;;;;;-3.93;100.00;101876.31;5075654;28;20215;-73
2021/01/18 02:30:59;;;;;;;45.35;20.13;;;;;;;-3.95;100.00;101879.69;5075382;28;20172;-73
2021/01/18 02:33:28;;;;;;;73.78;57.28;;;;;;;-3.96;100.00;101876.25;5070024;28;20195;-73
2021/01/18 02:36:17;;;;;;;54.40;27.80;;;;;;;-3.89;100.00;101874.63;5074414;28;20195;-73
2021/01/18 02:39:13;;;;;;;75.00;49.75;;;;;;;-3.85;100.00;101873.81;5070912;28;20183;-72
2021/01/18 02:42:04;;;;;;;87.10;46.95;;;;;;;-3.88;100.00;101891.72;5057471;28;20655;-73
2021/01/18 02:44:30;;;;;;;58.78;33.80;;;;;;;-3.83;100.00;101881.53;5057264;28;20291;-74
2021/01/18 02:46:58;;;;;;;78.32;31.52;;;;;;;-3.82;100.00;101872.97;5057426;28;20161;-74
2021/01/18 02:49:24;;;;;;;81.93;62.33;;;;;;;-3.78;100.00;101873.03;5068518;28;20173;-72
2021/01/18 02:51:58;;;;;;;63.45;23.73;;;;;;;-3.78;100.00;101872.16;5073419;28;20526;-73
2021/01/18 02:54:25;;;;;;;67.22;36.75;;;;;;;-3.80;100.00;101879.84;5062007;28;20218;-73
2021/01/18 02:56:53;;;;;;;70.18;34.42;;;;;;;-3.78;100.00;101874.72;5075122;28;20173;-72
2021/01/18 02:59:19;;;;;;;81.28;37.45;;;;;;;-3.83;100.00;101877.25;5072682;28;20184;-73
2021/01/18 03:02:10;;;;;;;85.45;50.20;;;;;;;-3.77;100.00;101877.34;5070744;28;20184;-74
2021/01/18 03:04:45;;;;;;;77.93;47.03;;;;;;;-3.79;100.00;101879.00;5073118;28;20176;-73
2021/01/18 03:07:24;;;;;;;65.38;31.48;;;;;;;-3.75;100.00;101882.47;5071352;28;20175;-72
2021/01/18 03:09:59;;;;;;;72.88;40.00;;;;;;;-3.82;100.00;101884.09;5068218;28;20196;-72
2021/01/18 03:12:30;;;;;;;45.97;20.70;;;;;;;-3.84;100.00;101883.25;5064337;28;20172;-73
2021/01/18 03:14:58;;;;;;;50.63;19.08;;;;;;;-3.88;100.00;101880.63;5061019;28;20286;-73
2021/01/18 03:17:27;;;;;;;75.85;44.58;;;;;;;-3.93;100.00;101876.31;5073097;28;20621;-72
2021/01/18 03:19:54;;;;;;;69.88;34.13;;;;;;;-3.95;100.00;101875.41;5073475;28;20646;-74
2021/01/18 03:22:37;;;;;;;66.45;50.47;;;;;;;-3.98;100.00;101877.94;5071543;28;20176;-74
2021/01/18 03:25:24;;;;;;;75.50;59.40;;;;;;;-3.97;100.00;101881.38;5071027;28;20180;-73
2021/01/18 03:27:52;;;;;;;79.57;32.50;;;;;;;-3.99;100.00;101876.22;5068926;28;20215;-73
2021/01/18 03:30:20;;;;;;;69.65;37.47;;;;;;;-4.04;100.00;101877.88;5071779;28;20173;-73
2021/01/18 03:32:50;;;;;;;72.05;24.30;;;;;;;-4.10;100.00;101876.94;5071608;28;20168;-73
2021/01/18 03:35:16;;;;;;;77.50;32.80;;;;;;;-4.13;100.00;101882.91;5060976;28;20227;-73
2021/01/18 03:37:41;;;;;;;77.60;37.63;;;;;;;-4.15;100.00;101881.19;5064821;28;20180;-73
2021/01/18 03:40:08;;;;;;;72.63;40.67;;;;;;;-4.22;100.00;101885.38;5061096;28;20572;-72
2021/01/18 03:42:33;;;;;;;62.63;30.77;;;;;;;-4.34;100.00;101888.63;5057759;28;20244;-74
2021/01/18 03:44:59;;;;;;;61.97;30.27;;;;;;;-4.36;100.00;101895.44;5052997;28;20260;-74
2021/01/18 03:47:24;;;;;;;79.47;32.20;;;;;;;-4.44;100.00;101897.03;5053411;28;20203;-72
2021/01/18 03:49:50;;;;;;;77.63;28.10;;;;;;;-4.48;100.00;101895.28;5053118;28;20244;-73
2021/01/18 03:52:15;;;;;;;80.10;37.03;;;;;;;-4.52;100.00;101908.91;5065885;28;20176;-72
2021/01/18 03:54:41;;;;;;;79.07;23.53;;;;;;;-4.61;100.00;101911.31;5064177;28;20278;-74
2021/01/18 03:57:06;;;;;;;58.83;32.23;;;;;;;-4.60;100.00;101907.94;5052957;28;20239;-71
2021/01/18 03:59:32;;;;;;;70.40;41.33;;;;;;;-4.65;100.00;101919.81;5056059;28;20169;-71
2021/01/18 04:01:57;;;;;;;75.73;51.90;;;;;;;-4.69;100.00;101911.19;5067424;28;20172;-70
2021/01/18 04:04:22;;;;;;;80.10;35.23;;;;;;;-4.72;100.00;101918.00;5072615;28;20179;-70
2021/01/18 04:06:48;;;;;;;55.97;37.77;;;;;;;-4.73;100.00;101929.97;5071510;28;20176;-73
2021/01/18 04:09:14;;;;;;;57.63;25.90;;;;;;;-4.72;100.00;101938.50;5072388;28;20184;-72
2021/01/18 04:11:39;;;;;;;80.17;45.70;;;;;;;-4.76;100.00;101924.75;5071131;28;20722;-72
2021/01/18 04:14:05;;;;;;;58.80;39.90;;;;;;;-4.77;100.00;101935.84;5072531;28;20176;-73
2021/01/18 04:16:30;;;;;;;85.63;47.13;;;;;;;-4.81;100.00;101934.97;5071110;28;20176;-72
2021/01/18 04:18:56;;;;;;;89.03;72.53;;;;;;;-4.84;100.00;101937.47;5065342;28;20165;-70
2021/01/18 04:21:23;;;;;;;55.67;44.90;;;;;;;-4.87;100.00;101932.31;5067708;28;20247;-72
2021/01/18 04:23:49;;;;;;;73.25;40.50;;;;;;;-4.89;100.00;101944.22;5069690;28;20181;-72
2021/01/18 04:26:14;;;;;;;73.07;65.17;;;;;;;-4.92;100.00;101951.84;5053148;28;20233;-71
2021/01/18 04:28:40;;;;;;;55.90;39.00;;;;;;;-4.97;100.00;101950.06;5068887;28;20214;-72
2021/01/18 04:31:06;;;;;;;48.87;27.50;;;;;;;-4.99;100.00;101952.59;5071039;28;20164;-72
2021/01/18 04:33:31;;;;;;;62.87;45.63;;;;;;;-4.97;100.00;101950.94;5071677;28;20184;-71
2021/01/18 04:35:57;;;;;;;86.47;48.67;;;;;;;-4.99;100.00;101950.03;5069518;28;20721;-73
2021/01/18 04:38:23;;;;;;;59.33;36.17;;;;;;;-4.97;100.00;101947.50;5072095;28;20186;-75
2021/01/18 04:40:49;;;;;;;88.75;50.85;;;;;;;-4.98;100.00;101954.34;5070773;28;20161;-73
2021/01/18 04:43:16;;;;;;;77.87;67.07;;;;;;;-4.96;100.00;101959.47;5071999;28;20179;-72
2021/01/18 04:45:42;;;;;;;75.03;42.65;;;;;;;-4.97;100.00;101966.31;5063950;28;20466;-73
2021/01/18 04:48:08;;;;;;;62.22;38.45;;;;;;;-4.96;100.00;101962.91;5052096;28;20203;-72
2021/01/18 04:50:34;;;;;;;64.33;42.17;;;;;;;-4.99;100.00;101965.41;5060189;28;20259;-74
2021/01/18 04:53:01;;;;;;;117.07;105.28;;;;;;;-5.06;100.00;101974.72;5053406;28;20207;-71
2021/01/18 04:55:27;;;;;;;79.70;60.13;;;;;;;-5.09;100.00;101966.94;5065519;28;20580;-71
2021/01/18 04:58:28;;;;;;;55.08;41.90;;;;;;;-5.08;100.00;101973.78;5069817;28;20172;-74
2021/01/18 05:00:55;;;;;;;54.63;34.25;;;;;;;-5.11;100.00;101988.25;5013905;28;20169;-74
2021/01/18 05:03:25;;;;;;;97.60;54.45;;;;;;;-5.15;100.00;101976.22;5063540;28;20177;-74
2021/01/18 05:05:51;;;;;;;114.57;102.55;;;;;;;-5.16;100.00;101977.94;5060433;28;20177;-73
2021/01/18 05:08:56;;;;;;;80.33;48.30;;;;;;;-5.14;100.00;101983.06;5071361;28;20169;-72
2021/01/18 05:11:21;;;;;;;54.63;32.40;;;;;;;-5.12;100.00;101981.41;5069255;28;20282;-73
2021/01/18 05:13:47;;;;;;;60.67;28.27;;;;;;;-5.14;100.00;101981.41;5071220;28;20257;-73
2021/01/18 05:16:13;;;;;;;54.80;32.38;;;;;;;-5.17;100.00;101985.59;5070712;28;20180;-71
2021/01/18 05:18:42;;;;;;;78.47;53.40;;;;;;;-5.19;100.00;101975.31;5066702;28;20173;-72
2021/01/18 05:21:11;;;;;;;81.45;54.92;;;;;;;-5.20;100.00;101983.84;5056980;28;20212;-73
2021/01/18 05:23:40;;;;;;;45.13;26.05;;;;;;;-5.21;100.00;101987.25;5070584;28;20172;-74
2021/01/18 05:26:26;;;;;;;80.55;46.55;;;;;;;-5.23;100.00;101983.78;5069910;28;20247;-73
2021/01/18 05:28:55;;;;;;;85.20;69.90;;;;;;;-5.28;100.00;101985.41;5065756;28;20175;-74
2021/01/18 05:31:27;;;;;;;77.90;60.03;;;;;;;-5.28;100.00;101987.97;5045351;28;20173;-72
2021/01/18 05:34:01;;;;;;;114.53;103.18;;;;;;;-5.32;100.00;101993.84;5067673;28;20612;-72
2021/01/18 05:36:38;;;;;;;106.93;95.47;;;;;;;-5.29;100.00;101983.66;5071298;28;20228;-70
2021/01/18 05:39:31;;;;;;;74.47;43.78;;;;;;;-5.30;100.00;101989.63;5052265;28;20187;-72
2021/01/18 05:41:57;;;;;;;82.03;52.25;;;;;;;-5.31;100.00;101991.31;5051897;28;20226;-73
2021/01/18 05:44:37;;;;;;;60.80;36.70;;;;;;;-5.30;100.00;101992.16;5051045;28;20553;-75
2021/01/18 05:47:04;;;;;;;48.63;23.70;;;;;;;-5.29;100.00;101999.00;5064080;28;20521;-73
2021/01/18 05:49:41;;;;;;;67.25;47.35;;;;;;;-5.30;100.00;101989.63;5069320;28;20251;-72
2021/01/18 05:52:23;;;;;;;84.30;75.05;;;;;;;-5.26;100.00;102008.47;5068639;28;20168;-74
2021/01/18 05:54:48;;;;;;;80.53;63.63;;;;;;;-5.29;100.00;102006.69;5070918;28;20192;-74
2021/01/18 05:57:15;;;;;;;83.20;67.83;;;;;;;-5.24;100.00;102006.78;5069810;28;20164;-73
2021/01/18 05:59:41;;;;;;;77.55;54.60;;;;;;;-5.25;100.00;102003.38;5063099;28;20619;-74
2021/01/18 06:02:09;;;;;;;77.85;52.85;;;;;;;-5.22;100.00;101997.44;5070378;28;20818;-72
2021/01/18 06:04:34;;;;;;;93.88;68.43;;;;;;;-5.20;100.00;102006.91;5069509;28;20550;-72
2021/01/18 06:07:02;;;;;;;66.93;50.27;;;;;;;-5.07;100.00;102003.69;5068947;28;20171;-75
2021/01/18 06:09:47;;;;;;;81.40;66.47;;;;;;;-4.99;100.00;102003.81;5064762;28;20203;-72
2021/01/18 06:12:20;;;;;;;86.75;56.25;;;;;;;-4.92;100.00;102000.53;5066394;28;20161;-73
2021/01/18 06:15:09;;;;;;;94.38;75.57;;;;;;;-4.82;100.00;101999.88;5056085;28;20697;-72
2021/01/18 06:17:45;;;;;;;110.93;85.55;;;;;;;-4.75;100.00;102004.25;5065165;28;20173;-70
2021/01/18 06:20:21;;;;;;;86.55;65.85;;;;;;;-4.66;100.00;102003.53;5070665;28;20148;-70
2021/01/18 06:22:58;;;;;;;139.88;89.80;;;;;;;-4.56;100.00;102010.53;5054349;28;20180;-70
2021/01/18 06:25:25;;;;;;;82.57;66.00;;;;;;;-4.51;100.00;102003.78;5070171;28;20210;-71
2021/01/18 06:27:52;;;;;;;73.10;52.53;;;;;;;-4.48;100.00;102011.50;5064401;28;20773;-73
2021/01/18 06:30:28;;;;;;;88.47;67.88;;;;;;;-4.42;100.00;102015.03;5059133;28;20706;-72
2021/01/18 06:32:59;;;;;;;104.55;47.95;;;;;;;-4.33;100.00;102018.56;5064023;28;20188;-70
2021/01/18 06:35:32;;;;;;;75.97;54.55;;;;;;;-4.26;100.00;102020.38;5060359;28;20271;-69
2021/01/18 06:38:02;;;;;;;107.45;76.47;;;;;;;-4.30;100.00;102023.78;5055847;28;20180;-70
2021/01/18 06:40:33;;;;;;;86.05;57.17;;;;;;;-4.30;100.00;102018.63;5061745;28;20172;-71
2021/01/18 06:42:59;;;;;;;85.60;46.13;;;;;;;-4.35;100.00;102020.25;5073193;28;20198;-74
2021/01/18 06:45:34;;;;;;;68.32;40.90;;;;;;;-4.39;100.00;102021.03;5073770;28;20179;-72
2021/01/18 06:48:00;;;;;;;99.25;74.30;;;;;;;-4.43;100.00;102026.97;5060894;28;20588;-73
2021/01/18 06:50:38;;;;;;;79.97;49.05;;;;;;;-4.38;100.00;102027.03;5073953;28;20550;-72
2021/01/18 06:53:17;;;;;;;83.43;67.20;;;;;;;-4.38;100.00;102033.06;5061631;28;20600;-73
2021/01/18 06:56:20;;;;;;;97.22;68.82;;;;;;;-4.31;100.00;102037.41;5053708;28;20749;-72
2021/01/18 06:58:51;;;;;;;91.93;52.28;;;;;;;-4.28;100.00;102034.91;5053619;28;20603;-73
2021/01/18 07:01:34;;;;;;;54.53;30.00;;;;;;;-4.20;100.00;102046.13;5045576;28;20184;-70
2021/01/18 07:04:08;;;;;;;99.00;74.70;;;;;;;-4.16;100.00;102043.59;5060670;28;20216;-73
2021/01/18 07:06:43;;;;;;;99.82;59.70;;;;;;;-4.11;100.00;102039.41;5068398;28;20190;-70
2021/01/18 07:09:11;;;;;;;66.95;41.47;;;;;;;-4.06;100.00;102051.47;5073001;28;20192;-70
2021/01/18 07:11:37;;;;;;;103.45;63.08;;;;;;;-4.02;100.00;102052.38;5071436;28;20355;-71
2021/01/18 07:14:06;;;;;;;78.13;58.22;;;;;;;-4.01;100.00;102056.66;5064323;28;20543;-70
2021/01/18 07:16:32;;;;;;;97.47;54.85;;;;;;;-3.96;100.00;102062.72;5072555;28;20164;-71
2021/01/18 07:19:00;;;;;;;65.55;39.40;;;;;;;-3.88;100.00;102063.69;5072192;28;20168;-70
2021/01/18 07:21:36;;;;;;;101.90;60.03;;;;;;;-3.79;100.00;102062.97;5072966;28;20156;-70
2021/01/18 07:24:02;;;;;;;65.82;37.50;;;;;;;-3.74;100.00;102064.75;5067490;28;20180;-70
2021/01/18 07:26:38;;;;;;;72.90;52.50;;;;;;;-3.75;100.00;102065.59;5072936;28;20239;-70
2021/01/18 07:29:07;;;;;;;69.28;43.17;;;;;;;-3.68;100.00;102071.69;5072355;28;20547;-72
2021/01/18 07:31:42;;;;;;;89.45;62.20;;;;;;;-3.51;100.00;102059.91;5064416;28;20169;-70
2021/01/18 07:34:12;;;;;;;97.47;65.13;;;;;;;-3.33;100.00;102061.81;5052987;28;20216;-70
2021/01/18 07:36:41;;;;;;;92.93;46.65;;;;;;;-3.27;100.00;102061.03;5053280;28;20181;-69
2021/01/18 07:39:28;;;;;;;96.47;57.75;;;;;;;-3.14;100.00;102056.06;5056461;28;20243;-69
2021/01/18 07:41:54;;;;;;;90.60;58.15;;;;;;;-3.10;100.00;102057.84;5072956;28;20536;-70
2021/01/18 07:44:41;;;;;;;66.15;33.78;;;;;;;-3.25;100.00;102062.81;5055088;28;20637;-70
2021/01/18 07:47:12;;;;;;;70.15;40.70;;;;;;;-3.24;100.00;102064.53;5071870;28;20171;-70
2021/01/18 07:49:42;;;;;;;89.18;50.30;;;;;;;-3.27;100.00;102066.19;5073036;28;20654;-70
2021/01/18 07:52:13;;;;;;;77.32;50.72;;;;;;;-3.31;100.00;102061.88;5072934;28;20635;-69
2021/01/18 07:54:38;;;;;;;85.97;49.17;;;;;;;-3.49;100.00;102057.34;5072623;28;20192;-70
2021/01/18 07:57:31;;;;;;;81.87;61.50;;;;;;;-3.60;100.00;102058.94;5072834;28;20184;-69
2021/01/18 08:00:18;;;;;;;87.10;56.50;;;;;;;-3.64;100.00;102069.16;5054892;28;20199;-69
2021/01/18 08:02:47;;;;;;;87.05;44.35;;;;;;;-3.55;100.00;102064.97;5054893;28;20173;-70
2021/01/18 08:05:32;;;;;;;92.20;42.20;;;;;;;-3.50;100.00;102060.75;5052300;28;20256;-69
2021/01/18 08:08:03;;;;;;;88.50;45.92;;;;;;;-3.36;100.00;102061.81;5054296;28;20173;-71
2021/01/18 08:10:57;;;;;;;88.07;48.60;;;;;;;-3.17;100.00;102068.03;5071994;28;20192;-70
2021/01/18 08:13:47;;;;;;;80.05;58.38;;;;;;;-3.06;100.00;102069.00;5071142;28;20168;-70
2021/01/18 08:16:28;;;;;;;78.88;35.67;;;;;;;-3.01;100.00;102069.91;5070823;28;20152;-71
2021/01/18 08:19:14;;;;;;;95.05;59.88;;;;;;;-2.95;100.00;102058.81;5067079;28;20620;-69
2021/01/18 08:21:45;;;;;;;80.22;40.65;;;;;;;-2.76;100.00;102054.72;5059217;28;20156;-69
2021/01/18 08:24:23;;;;;;;82.85;44.00;;;;;;;-2.59;100.00;102054.00;5061599;28;20216;-70
2021/01/18 08:27:06;;;;;;;90.30;60.42;;;;;;;-2.51;100.00;102061.78;5053071;28;20257;-70
2021/01/18 08:29:37;;;;;;;70.15;54.00;;;;;;;-2.46;100.00;102048.97;5051927;28;20169;-73
2021/01/18 08:32:36;;;;;;;91.10;46.00;;;;;;;-2.34;100.00;102046.50;5055972;28;20169;-70
2021/01/18 08:35:08;;;;;;;51.55;23.85;;;;;;;-2.16;100.00;102036.34;5053707;28;20207;-72
2021/01/18 08:37:38;;;;;;;85.63;47.47;;;;;;;-1.95;100.00;102056.22;5072086;28;20662;-69
2021/01/18 08:40:14;;;;;;;71.57;38.03;;;;;;;-1.90;100.00;102035.63;5053771;28;20433;-69
2021/01/18 08:42:42;;;;;;;85.13;44.05;;;;;;;-1.92;100.00;102042.47;5057408;28;20247;-72
2021/01/18 08:45:19;;;;;;;69.10;45.72;;;;;;;-1.93;100.00;102048.50;5062318;28;20194;-72
2021/01/18 08:47:56;;;;;;;71.70;41.17;;;;;;;-1.84;100.00;102038.22;5060368;28;20176;-73
2021/01/18 08:50:38;;;;;;;58.42;28.85;;;;;;;-1.79;100.00;102037.41;5071733;28;20638;-72
2021/01/18 08:53:34;;;;;;;67.75;35.00;;;;;;;-1.73;100.00;102040.03;5064565;28;20252;-70
2021/01/18 08:56:07;;;;;;;77.43;47.55;;;;;;;-1.62;100.00;102031.47;5051861;28;20161;-73
2021/01/18 08:58:34;;;;;;;61.88;28.98;;;;;;;-1.46;100.00;102023.81;5061586;28;20168;-73
2021/01/18 09:01:01;;;;;;;72.17;41.53;;;;;;;-1.36;100.00;102035.03;5052162;28;20754;-72
2021/01/18 09:03:27;;;;;;;66.37;27.27;;;;;;;-1.48;100.00;102028.09;5050836;28;20479;-73
2021/01/18 09:05:57;;;;;;;69.97;37.20;;;;;;;-1.37;100.00;102032.41;5051393;28;20808;-71
2021/01/18 09:08:24;;;;;;;51.00;23.03;;;;;;;-1.48;100.00;102030.69;5040260;28;20164;-71
2021/01/18 09:11:02;;;;;;;101.55;88.15;;;;;;;-1.53;100.00;102024.63;5071391;28;20718;-77
2021/01/18 09:13:30;;;;;;;85.07;47.13;;;;;;;-1.45;100.00;102038.41;5059349;28;20268;-71
2021/01/18 09:15:57;;;;;;;74.53;35.10;;;;;;;-1.42;100.00;102048.75;5052552;28;20486;-71
2021/01/18 09:18:25;;;;;;;84.77;64.70;;;;;;;-1.36;100.00;102040.19;5044261;28;20419;-73
2021/01/18 09:20:51;;;;;;;53.00;23.13;;;;;;;-1.48;100.00;102043.56;5051785;28;20447;-71
2021/01/18 09:23:17;;;;;;;82.60;68.68;;;;;;;-1.46;100.00;102040.97;5056035;28;20400;-73
2021/01/18 09:25:43;;;;;;;58.63;36.03;;;;;;;-1.41;100.00;102039.28;5050935;28;20183;-72
2021/01/18 09:28:15;;;;;;;93.17;68.73;;;;;;;-1.24;100.00;102022.16;5050597;28;20415;-72
2021/01/18 09:30:43;;;;;;;86.17;51.80;;;;;;;-0.97;100.00;102008.47;5051042;28;20399;-71
2021/01/18 09:33:11;;;;;;;63.17;35.70;;;;;;;-1.06;100.00;102025.63;5050860;28;20837;-70
2021/01/18 09:35:41;;;;;;;50.77;25.07;;;;;;;-0.76;100.00;102020.50;5066578;28;20433;-74
2021/01/18 09:38:08;;;;;;;74.23;46.47;;;;;;;-0.35;100.00;102007.59;5070485;28;20434;-73
2021/01/18 09:40:40;;;;;;;80.03;38.30;;;;;;;-0.11;100.00;102016.16;5070676;28;20849;-71
2021/01/18 09:43:07;;;;;;;65.43;34.90;;;;;;;0.08;100.00;102007.53;5070828;28;20762;-72
2021/01/18 09:45:34;;;;;;;107.87;78.60;;;;;;;0.15;100.00;102003.16;5070981;28;20493;-71
2021/01/18 09:48:04;;;;;;;91.63;59.70;;;;;;;0.38;100.00;101998.78;5057386;28;20400;-71
2021/01/18 09:50:30;;;;;;;71.40;41.00;;;;;;;0.55;100.00;101999.56;5061795;28;20801;-72
2021/01/18 09:52:57;;;;;;;96.63;72.37;;;;;;;0.22;100.00;102004.88;5050535;28;20487;-72
2021/01/18 09:55:27;;;;;;;66.33;35.23;;;;;;;-0.07;100.00;101986.91;5057151;28;20455;-73
2021/01/18 09:58:13;;;;;;;63.57;38.07;;;;;;;0.12;100.00;101975.63;5050781;28;20830;-72
2021/01/18 10:00:42;;;;;;;107.70;66.90;;;;;;;1.37;100.00;101967.09;5049022;28;20400;-73
2021/01/18 10:03:08;;;;;;;90.73;63.60;;;;;;;1.85;94.11;101959.69;5049684;28;20772;-70
2021/01/18 10:05:43;;;;;;;89.60;58.17;;;;;;;3.14;85.29;101947.56;5050392;28;20441;-72
2021/01/18 10:08:17;;;;;;;87.43;52.17;;;;;;;3.09;81.46;101939.84;5049891;28;20486;-71
2021/01/18 10:10:45;;;;;;;81.90;49.77;;;;;;;2.45;81.69;101943.41;5058717;28;20967;-72
2021/01/18 10:13:17;;;;;;;83.97;47.50;;;;;;;1.53;85.79;101951.41;5074064;28;20417;-72
2021/01/18 10:15:44;;;;;;;102.90;73.27;;;;;;;1.67;87.24;101939.19;5074382;28;20973;-72
2021/01/18 10:18:38;;;;;;;94.27;64.43;;;;;;;2.03;88.74;101937.88;5054815;28;20403;-72
2021/01/18 10:21:04;;;;;;;74.63;46.20;;;;;;;1.91;86.03;101946.69;5054335;28;20457;-72
2021/01/18 10:23:38;;;;;;;90.67;65.97;;;;;;;2.27;85.57;101926.38;5053817;28;20400;-72
2021/01/18 10:26:26;;;;;;;89.47;63.17;;;;;;;2.15;85.15;101932.56;5053743;28;20395;-72
2021/01/18 10:28:56;;;;;;;103.70;82.70;;;;;;;2.32;83.93;101944.44;5060635;28;20486;-72
2021/01/18 10:31:24;;;;;;;73.47;43.30;;;;;;;2.62;82.57;101925.00;5074119;28;20436;-73
2021/01/18 10:34:16;;;;;;;84.57;49.40;;;;;;;3.04;81.13;101929.53;5073724;28;20952;-72
2021/01/18 10:36:46;;;;;;;70.07;34.13;;;;;;;3.93;77.64;101917.53;5056301;28;20422;-75
2021/01/18 10:39:27;;;;;;;86.30;60.57;;;;;;;3.87;76.15;101917.66;5073979;28;20427;-73
2021/01/18 10:42:01;;;;;;;79.47;50.70;;;;;;;3.29;75.94;101913.53;5059536;28;20423;-71
2021/01/18 10:44:26;;;;;;;70.73;43.53;;;;;;;3.18;75.25;101907.69;5060006;28;20422;-72
2021/01/18 10:46:52;;;;;;;80.83;51.43;;;;;;;3.53;74.96;101901.84;5062514;28;20477;-72
2021/01/18 10:49:31;;;;;;;88.57;66.50;;;;;;;3.51;72.23;101911.41;5068731;28;20173;-70
2021/01/18 10:52:17;;;;;;;96.30;64.73;;;;;;;3.69;72.58;101889.41;5046441;28;20187;-70
2021/01/18 10:54:58;;;;;;;111.87;72.57;;;;;;;3.81;70.70;101892.63;5072913;28;20496;-69
2021/01/18 10:57:23;;;;;;;133.53;118.80;;;;;;;4.00;69.73;101881.84;5073323;28;20443;-71
2021/01/18 11:00:14;;;;;;;124.83;109.77;;;;;;;3.69;70.44;101890.25;5060111;28;20498;-70
2021/01/18 11:02:51;;;;;;;93.30;69.27;;;;;;;3.96;70.31;101888.00;5046025;28;20277;-71
2021/01/18 11:05:18;;;;;;;88.37;55.77;;;;;;;4.04;68.19;101880.91;5053233;28;20408;-69
2021/01/18 11:07:47;;;;;;;79.57;47.10;;;;;;;3.85;68.96;101878.69;5061547;28;20450;-70
2021/01/18 11:10:13;;;;;;;93.83;64.10;;;;;;;3.47;70.58;101868.19;5055718;28;20719;-69
2021/01/18 11:12:41;;;;;;;99.93;77.37;;;;;;;3.80;70.82;101871.88;5056830;28;20440;-70
2021/01/18 11:15:12;;;;;;;79.93;44.63;;;;;;;4.36;68.58;101868.03;5073012;28;20485;-71
2021/01/18 11:17:57;;;;;;;103.87;78.53;;;;;;;3.34;68.73;101862.38;5072804;28;20433;-71
2021/01/18 11:20:28;;;;;;;87.13;50.20;;;;;;;2.86;71.73;101872.72;5072082;28;20862;-71
2021/01/18 11:22:53;;;;;;;74.00;36.50;;;;;;;3.73;68.28;101875.47;5072289;28;20391;-72